sensor_id;sensor_type;location;lat;lon;timestamp;temperature;humidity
40816;DHT22;26535;48.788;9.214;2023-10-13T00:01:57;17.80;90.60
40816;DHT22;26535;48.788;9.214;2023-10-13T00:04:30;17.80;90.80
40816;DHT22;26535;48.788;9.214;2023-10-13T00:06:58;17.70;90.90
40816;DHT22;26535;48.788;9.214;2023-10-13T00:09:28;17.70;91.20
40816;DHT22;26535;48.788;9.214;2023-10-13T00:12:08;17.50;91.10
40816;DHT22;26535;48.788;9.214;2023-10-13T00:14:40;17.40;91.40
40816;DHT22;26535;48.788;9.214;2023-10-13T00:17:07;17.30;91.20
40816;DHT22;26535;48.788;9.214;2023-10-13T00:19:38;17.30;91.60
40816;DHT22;26535;48.788;9.214;2023-10-13T00:22:10;17.20;91.90
40816;DHT22;26535;48.788;9.214;2023-10-13T00:24:40;17.10;92.20
40816;DHT22;26535;48.788;9.214;2023-10-13T00:27:19;17.00;92.70
40816;DHT22;26535;48.788;9.214;2023-10-13T00:30:04;16.90;92.70
40816;DHT22;26535;48.788;9.214;2023-10-13T04:47:19;13.90;96.80
40816;DHT22;26535;48.788;9.214;2023-10-13T04:49:47;13.90;97.30
40816;DHT22;26535;48.788;9.214;2023-10-13T04:52:13;13.80;97.30
40816;DHT22;26535;48.788;9.214;2023-10-13T04:54:52;13.80;97.20
40816;DHT22;26535;48.788;9.214;2023-10-13T04:57:25;13.80;97.50
40816;DHT22;26535;48.788;9.214;2023-10-13T05:00:10;13.80;97.50
40816;DHT22;26535;48.788;9.214;2023-10-13T05:02:43;13.70;97.70
40816;DHT22;26535;48.788;9.214;2023-10-13T05:05:44;13.70;97.80
40816;DHT22;26535;48.788;9.214;2023-10-13T05:08:40;13.70;98.00
40816;DHT22;26535;48.788;9.214;2023-10-13T05:11:35;13.80;97.80
40816;DHT22;26535;48.788;9.214;2023-10-13T05:14:19;13.90;97.40
40816;DHT22;26535;48.788;9.214;2023-10-13T05:17:04;13.90;97.50
40816;DHT22;26535;48.788;9.214;2023-10-13T05:19:48;13.90;97.20
40816;DHT22;26535;48.788;9.214;2023-10-13T05:22:33;14.00;97.30
40816;DHT22;26535;48.788;9.214;2023-10-13T05:25:17;14.00;97.30
40816;DHT22;26535;48.788;9.214;2023-10-13T05:28:08;13.90;97.30
40816;DHT22;26535;48.788;9.214;2023-10-13T05:31:08;13.90;97.70
40816;DHT22;26535;48.788;9.214;2023-10-13T05:34:30;13.80;97.40
40816;DHT22;26535;48.788;9.214;2023-10-13T05:37:15;13.80;97.80
40816;DHT22;26535;48.788;9.214;2023-10-13T05:39:59;13.80;97.80
40816;DHT22;26535;48.788;9.214;2023-10-13T05:42:52;13.70;97.60
40816;DHT22;26535;48.788;9.214;2023-10-13T05:45:42;13.70;97.80
40816;DHT22;26535;48.788;9.214;2023-10-13T05:48:26;13.70;97.90
40816;DHT22;26535;48.788;9.214;2023-10-13T05:51:11;13.70;98.00
40816;DHT22;26535;48.788;9.214;2023-10-13T05:53:55;13.80;97.80
40816;DHT22;26535;48.788;9.214;2023-10-13T05:56:57;13.80;97.80
40816;DHT22;26535;48.788;9.214;2023-10-13T05:59:45;14.00;97.60
40816;DHT22;26535;48.788;9.214;2023-10-13T06:02:30;14.10;97.30
40816;DHT22;26535;48.788;9.214;2023-10-13T06:05:15;14.30;96.90
40816;DHT22;26535;48.788;9.214;2023-10-13T06:08:20;14.50;96.40
40816;DHT22;26535;48.788;9.214;2023-10-13T06:11:05;14.70;96.00
40816;DHT22;26535;48.788;9.214;2023-10-13T06:16:59;15.10;95.20
40816;DHT22;26535;48.788;9.214;2023-10-13T06:19:44;15.30;94.40
40816;DHT22;26535;48.788;9.214;2023-10-13T06:22:30;15.40;94.10
40816;DHT22;26535;48.788;9.214;2023-10-13T06:25:15;15.60;93.60
40816;DHT22;26535;48.788;9.214;2023-10-13T06:28:20;15.70;93.40
40816;DHT22;26535;48.788;9.214;2023-10-13T06:31:05;15.80;93.10
40816;DHT22;26535;48.788;9.214;2023-10-13T06:33:36;16.00;92.70
40816;DHT22;26535;48.788;9.214;2023-10-13T06:36:07;16.00;92.70
40816;DHT22;26535;48.788;9.214;2023-10-13T06:38:41;16.10;92.40
40816;DHT22;26535;48.788;9.214;2023-10-13T06:41:08;16.20;91.70
40816;DHT22;26535;48.788;9.214;2023-10-13T06:43:38;16.30;92.10
40816;DHT22;26535;48.788;9.214;2023-10-13T06:46:09;16.40;91.70
40816;DHT22;26535;48.788;9.214;2023-10-13T06:48:40;16.40;91.40
40816;DHT22;26535;48.788;9.214;2023-10-13T06:51:07;16.50;91.40
40816;DHT22;26535;48.788;9.214;2023-10-13T06:53:55;16.60;91.40
40816;DHT22;26535;48.788;9.214;2023-10-13T06:56:22;16.60;91.50
40816;DHT22;26535;48.788;9.214;2023-10-13T06:58:55;16.60;91.10
40816;DHT22;26535;48.788;9.214;2023-10-13T07:01:44;16.60;90.90
40816;DHT22;26535;48.788;9.214;2023-10-13T07:04:15;16.70;90.80
40816;DHT22;26535;48.788;9.214;2023-10-13T07:06:51;16.80;90.90
40816;DHT22;26535;48.788;9.214;2023-10-13T07:09:23;16.90;90.60
40816;DHT22;26535;48.788;9.214;2023-10-13T07:12:02;17.00;90.60
40816;DHT22;26535;48.788;9.214;2023-10-13T07:14:29;17.00;90.50
40816;DHT22;26535;48.788;9.214;2023-10-13T07:17:04;17.20;90.40
40816;DHT22;26535;48.788;9.214;2023-10-13T07:19:36;17.20;90.30
40816;DHT22;26535;48.788;9.214;2023-10-13T07:25:21;17.30;90.10
40816;DHT22;26535;48.788;9.214;2023-10-13T07:27:55;17.40;90.10
40816;DHT22;26535;48.788;9.214;2023-10-13T07:30:29;17.40;89.80
40816;DHT22;26535;48.788;9.214;2023-10-13T07:33:07;17.40;90.00
40816;DHT22;26535;48.788;9.214;2023-10-13T07:35:58;17.50;89.50
40816;DHT22;26535;48.788;9.214;2023-10-13T07:38:28;17.40;89.40
40816;DHT22;26535;48.788;9.214;2023-10-13T07:41:09;17.50;89.20
40816;DHT22;26535;48.788;9.214;2023-10-13T07:43:47;17.50;88.90
40816;DHT22;26535;48.788;9.214;2023-10-13T07:46:35;17.60;88.80
40816;DHT22;26535;48.788;9.214;2023-10-13T07:49:04;17.70;88.60
40816;DHT22;26535;48.788;9.214;2023-10-13T07:51:40;17.80;88.00
40816;DHT22;26535;48.788;9.214;2023-10-13T07:54:20;17.90;87.40
40816;DHT22;26535;48.788;9.214;2023-10-13T07:56:51;17.90;86.80
40816;DHT22;26535;48.788;9.214;2023-10-13T07:59:38;18.00;86.60
40816;DHT22;26535;48.788;9.214;2023-10-13T08:02:13;18.10;86.30
40816;DHT22;26535;48.788;9.214;2023-10-13T08:04:44;18.20;86.30
40816;DHT22;26535;48.788;9.214;2023-10-13T08:07:15;18.30;86.10
40816;DHT22;26535;48.788;9.214;2023-10-13T08:09:56;18.40;85.80
40816;DHT22;26535;48.788;9.214;2023-10-13T08:12:49;18.50;85.40
40816;DHT22;26535;48.788;9.214;2023-10-13T08:15:16;18.70;84.90
40816;DHT22;26535;48.788;9.214;2023-10-13T08:18:00;18.90;84.00
40816;DHT22;26535;48.788;9.214;2023-10-13T08:20:43;18.90;84.20
40816;DHT22;26535;48.788;9.214;2023-10-13T08:23:12;19.00;83.80
40816;DHT22;26535;48.788;9.214;2023-10-13T08:29:34;19.10;83.80
40816;DHT22;26535;48.788;9.214;2023-10-13T08:32:19;19.20;83.40
40816;DHT22;26535;48.788;9.214;2023-10-13T08:35:06;19.20;83.70
40816;DHT22;26535;48.788;9.214;2023-10-13T08:37:44;19.30;83.40
40816;DHT22;26535;48.788;9.214;2023-10-13T08:40:50;19.40;83.20
40816;DHT22;26535;48.788;9.214;2023-10-13T08:43:35;19.60;82.50
40816;DHT22;26535;48.788;9.214;2023-10-13T08:46:16;19.80;81.60
40816;DHT22;26535;48.788;9.214;2023-10-13T08:49:18;20.00;81.00
40816;DHT22;26535;48.788;9.214;2023-10-13T08:52:17;20.30;79.90
40816;DHT22;26535;48.788;9.214;2023-10-13T08:55:12;20.30;80.10
40816;DHT22;26535;48.788;9.214;2023-10-13T08:58:06;20.50;79.30
40816;DHT22;26535;48.788;9.214;2023-10-13T09:00:47;20.70;78.50
40816;DHT22;26535;48.788;9.214;2023-10-13T09:03:31;20.90;78.20
40816;DHT22;26535;48.788;9.214;2023-10-13T09:06:18;21.00;77.10
40816;DHT22;26535;48.788;9.214;2023-10-13T09:09:18;21.20;76.40
40816;DHT22;26535;48.788;9.214;2023-10-13T09:12:15;21.40;75.60
40816;DHT22;26535;48.788;9.214;2023-10-13T09:14:53;21.60;75.30
40816;DHT22;26535;48.788;9.214;2023-10-13T09:17:47;21.80;75.00
40816;DHT22;26535;48.788;9.214;2023-10-13T09:20:29;22.00;74.20
40816;DHT22;26535;48.788;9.214;2023-10-13T09:23:13;22.20;73.80
40816;DHT22;26535;48.788;9.214;2023-10-13T09:25:49;22.40;73.10
40816;DHT22;26535;48.788;9.214;2023-10-13T09:28:34;22.50;72.90
40816;DHT22;26535;48.788;9.214;2023-10-13T09:31:06;22.60;71.80
40816;DHT22;26535;48.788;9.214;2023-10-13T09:33:38;22.70;67.60
40816;DHT22;26535;48.788;9.214;2023-10-13T09:36:42;23.00;67.70
40816;DHT22;26535;48.788;9.214;2023-10-13T09:39:11;23.30;64.10
40816;DHT22;26535;48.788;9.214;2023-10-13T09:42:11;23.90;61.00
40816;DHT22;26535;48.788;9.214;2023-10-13T09:44:38;24.20;59.70
40816;DHT22;26535;48.788;9.214;2023-10-13T09:47:09;24.40;59.80
40816;DHT22;26535;48.788;9.214;2023-10-13T09:50:00;24.60;58.90
40816;DHT22;26535;48.788;9.214;2023-10-13T09:52:39;24.80;58.50
40816;DHT22;26535;48.788;9.214;2023-10-13T09:58:48;25.10;57.90
40816;DHT22;26535;48.788;9.214;2023-10-13T10:01:40;25.30;57.80
40816;DHT22;26535;48.788;9.214;2023-10-13T10:04:10;25.40;56.60
40816;DHT22;26535;48.788;9.214;2023-10-13T10:07:01;25.40;56.80
40816;DHT22;26535;48.788;9.214;2023-10-13T10:09:28;25.50;57.20
40816;DHT22;26535;48.788;9.214;2023-10-13T10:12:01;25.70;56.90
40816;DHT22;26535;48.788;9.214;2023-10-13T10:15:16;25.80;56.60
40816;DHT22;26535;48.788;9.214;2023-10-13T10:18:03;26.00;57.30
40816;DHT22;26535;48.788;9.214;2023-10-13T10:20:30;26.10;55.60
40816;DHT22;26535;48.788;9.214;2023-10-13T10:26:29;26.50;55.70
40816;DHT22;26535;48.788;9.214;2023-10-13T10:28:55;26.60;55.20
40816;DHT22;26535;48.788;9.214;2023-10-13T10:31:34;26.70;54.80
40816;DHT22;26535;48.788;9.214;2023-10-13T10:34:16;26.60;53.80
40816;DHT22;26535;48.788;9.214;2023-10-13T10:36:48;26.70;54.70
40816;DHT22;26535;48.788;9.214;2023-10-13T10:39:18;26.90;54.30
40816;DHT22;26535;48.788;9.214;2023-10-13T10:41:44;27.20;53.60
40816;DHT22;26535;48.788;9.214;2023-10-13T10:44:24;27.70;53.60
40816;DHT22;26535;48.788;9.214;2023-10-13T10:47:23;28.00;52.70
40816;DHT22;26535;48.788;9.214;2023-10-13T10:50:03;28.10;52.40
40816;DHT22;26535;48.788;9.214;2023-10-13T10:52:51;28.00;52.60
40816;DHT22;26535;48.788;9.214;2023-10-13T10:55:31;28.00;52.40
40816;DHT22;26535;48.788;9.214;2023-10-13T10:58:04;28.40;52.20
40816;DHT22;26535;48.788;9.214;2023-10-13T11:01:15;29.30;51.20
40816;DHT22;26535;48.788;9.214;2023-10-13T11:03:57;30.00;50.80
40816;DHT22;26535;48.788;9.214;2023-10-13T11:06:24;30.70;49.20
40816;DHT22;26535;48.788;9.214;2023-10-13T11:09:04;30.80;49.40
40816;DHT22;26535;48.788;9.214;2023-10-13T11:11:44;30.20;49.40
40816;DHT22;26535;48.788;9.214;2023-10-13T11:14:20;29.70;49.90
40816;DHT22;26535;48.788;9.214;2023-10-13T11:16:49;30.10;49.30
40816;DHT22;26535;48.788;9.214;2023-10-13T11:20:13;30.80;49.30
40816;DHT22;26535;48.788;9.214;2023-10-13T11:22:55;31.60;48.30
40816;DHT22;26535;48.788;9.214;2023-10-13T11:25:36;32.20;47.90
40816;DHT22;26535;48.788;9.214;2023-10-13T11:28:16;32.90;46.30
40816;DHT22;26535;48.788;9.214;2023-10-13T11:31:00;33.00;46.50
40816;DHT22;26535;48.788;9.214;2023-10-13T11:33:50;32.10;46.70
40816;DHT22;26535;48.788;9.214;2023-10-13T11:36:27;32.20;47.50
40816;DHT22;26535;48.788;9.214;2023-10-13T11:39:07;31.10;47.00
40816;DHT22;26535;48.788;9.214;2023-10-13T11:41:36;30.90;47.40
40816;DHT22;26535;48.788;9.214;2023-10-13T11:44:11;30.40;48.10
40816;DHT22;26535;48.788;9.214;2023-10-13T11:46:42;30.10;48.70
40816;DHT22;26535;48.788;9.214;2023-10-13T11:49:14;30.40;48.20
40816;DHT22;26535;48.788;9.214;2023-10-13T11:51:57;30.30;48.40
40816;DHT22;26535;48.788;9.214;2023-10-13T11:54:41;29.80;48.70
40816;DHT22;26535;48.788;9.214;2023-10-13T11:57:10;30.70;48.70
40816;DHT22;26535;48.788;9.214;2023-10-13T11:59:45;31.60;47.50
40816;DHT22;26535;48.788;9.214;2023-10-13T12:02:18;32.50;46.50
40816;DHT22;26535;48.788;9.214;2023-10-13T12:04:50;33.30;46.30
40816;DHT22;26535;48.788;9.214;2023-10-13T12:07:51;34.80;45.00
40816;DHT22;26535;48.788;9.214;2023-10-13T12:10:20;35.10;44.10
40816;DHT22;26535;48.788;9.214;2023-10-13T12:13:44;35.20;44.20
40816;DHT22;26535;48.788;9.214;2023-10-13T12:16:13;35.10;43.30
40816;DHT22;26535;48.788;9.214;2023-10-13T12:18:38;35.60;43.20
40816;DHT22;26535;48.788;9.214;2023-10-13T12:21:10;36.20;43.10
40816;DHT22;26535;48.788;9.214;2023-10-13T12:23:48;35.70;43.30
40816;DHT22;26535;48.788;9.214;2023-10-13T12:26:16;35.60;42.60
40816;DHT22;26535;48.788;9.214;2023-10-13T12:29:23;35.70;42.40
40816;DHT22;26535;48.788;9.214;2023-10-13T12:32:19;36.10;42.00
40816;DHT22;26535;48.788;9.214;2023-10-13T12:34:49;36.00;42.30
40816;DHT22;26535;48.788;9.214;2023-10-13T12:37:33;36.00;42.30
40816;DHT22;26535;48.788;9.214;2023-10-13T12:40:21;36.30;42.50
40816;DHT22;26535;48.788;9.214;2023-10-13T12:43:12;37.20;41.50
40816;DHT22;26535;48.788;9.214;2023-10-13T12:45:58;37.00;41.50
40816;DHT22;26535;48.788;9.214;2023-10-13T12:48:43;37.00;41.40
40816;DHT22;26535;48.788;9.214;2023-10-13T12:51:23;37.60;41.50
40816;DHT22;26535;48.788;9.214;2023-10-13T12:54:06;38.40;40.90
40816;DHT22;26535;48.788;9.214;2023-10-13T12:56:51;37.80;40.90
40816;DHT22;26535;48.788;9.214;2023-10-13T12:59:53;38.30;40.60
40816;DHT22;26535;48.788;9.214;2023-10-13T13:02:37;37.70;40.80
40816;DHT22;26535;48.788;9.214;2023-10-13T13:05:04;37.30;41.10
40816;DHT22;26535;48.788;9.214;2023-10-13T13:07:46;38.20;40.80
40816;DHT22;26535;48.788;9.214;2023-10-13T13:10:19;39.30;40.40
40816;DHT22;26535;48.788;9.214;2023-10-13T13:12:46;39.80;39.40
40816;DHT22;26535;48.788;9.214;2023-10-13T13:15:12;39.60;39.60
40816;DHT22;26535;48.788;9.214;2023-10-13T13:17:38;39.80;38.90
40816;DHT22;26535;48.788;9.214;2023-10-13T13:20:08;39.50;39.30
40816;DHT22;26535;48.788;9.214;2023-10-13T13:22:39;39.80;39.40
40816;DHT22;26535;48.788;9.214;2023-10-13T13:25:06;40.50;39.00
40816;DHT22;26535;48.788;9.214;2023-10-13T13:27:35;41.60;38.80
40816;DHT22;26535;48.788;9.214;2023-10-13T13:30:04;40.20;38.40
40816;DHT22;26535;48.788;9.214;2023-10-13T13:32:54;39.60;38.30
40816;DHT22;26535;48.788;9.214;2023-10-13T13:35:19;39.60;38.50
40816;DHT22;26535;48.788;9.214;2023-10-13T13:37:48;39.60;38.00
40816;DHT22;26535;48.788;9.214;2023-10-13T13:43:37;39.50;38.50
40816;DHT22;26535;48.788;9.214;2023-10-13T13:46:12;39.30;38.10
40816;DHT22;26535;48.788;9.214;2023-10-13T13:48:42;38.90;37.70
40816;DHT22;26535;48.788;9.214;2023-10-13T13:51:12;38.90;38.40
40816;DHT22;26535;48.788;9.214;2023-10-13T13:53:44;38.70;37.70
40816;DHT22;26535;48.788;9.214;2023-10-13T13:56:16;38.10;37.90
40816;DHT22;26535;48.788;9.214;2023-10-13T13:58:47;38.40;37.90
40816;DHT22;26535;48.788;9.214;2023-10-13T14:01:13;38.50;38.30
40816;DHT22;26535;48.788;9.214;2023-10-13T14:03:54;39.50;37.90
40816;DHT22;26535;48.788;9.214;2023-10-13T14:06:25;39.80;38.30
40816;DHT22;26535;48.788;9.214;2023-10-13T14:09:03;40.10;37.60
40816;DHT22;26535;48.788;9.214;2023-10-13T14:12:13;39.40;37.20
40816;DHT22;26535;48.788;9.214;2023-10-13T14:14:56;38.70;38.00
40816;DHT22;26535;48.788;9.214;2023-10-13T14:17:23;39.30;38.70
40816;DHT22;26535;48.788;9.214;2023-10-13T14:19:58;39.50;37.50
40816;DHT22;26535;48.788;9.214;2023-10-13T14:22:24;38.90;37.70
40816;DHT22;26535;48.788;9.214;2023-10-13T14:24:51;39.40;37.80
40816;DHT22;26535;48.788;9.214;2023-10-13T14:27:20;38.90;37.80
40816;DHT22;26535;48.788;9.214;2023-10-13T14:29:49;38.50;37.50
40816;DHT22;26535;48.788;9.214;2023-10-13T14:32:19;38.80;37.40
40816;DHT22;26535;48.788;9.214;2023-10-13T14:35:17;38.40;37.60
40816;DHT22;26535;48.788;9.214;2023-10-13T14:37:46;38.10;37.70
40816;DHT22;26535;48.788;9.214;2023-10-13T14:40:12;37.30;38.30
40816;DHT22;26535;48.788;9.214;2023-10-13T14:42:40;37.00;38.10
40816;DHT22;26535;48.788;9.214;2023-10-13T14:45:17;37.10;38.00
40816;DHT22;26535;48.788;9.214;2023-10-13T14:47:46;36.60;38.20
40816;DHT22;26535;48.788;9.214;2023-10-13T14:50:12;36.30;38.50
40816;DHT22;26535;48.788;9.214;2023-10-13T14:53:19;36.10;38.30
40816;DHT22;26535;48.788;9.214;2023-10-13T14:55:47;34.70;39.00
40816;DHT22;26535;48.788;9.214;2023-10-13T14:58:13;34.00;39.40
40816;DHT22;26535;48.788;9.214;2023-10-13T15:00:42;33.90;39.60
40816;DHT22;26535;48.788;9.214;2023-10-13T15:03:11;33.90;40.00
40816;DHT22;26535;48.788;9.214;2023-10-13T15:05:55;33.30;39.80
40816;DHT22;26535;48.788;9.214;2023-10-13T15:08:32;32.80;40.00
40816;DHT22;26535;48.788;9.214;2023-10-13T15:11:23;32.80;40.00
40816;DHT22;26535;48.788;9.214;2023-10-13T15:14:11;32.80;39.90
40816;DHT22;26535;48.788;9.214;2023-10-13T15:16:39;33.30;39.40
40816;DHT22;26535;48.788;9.214;2023-10-13T15:19:05;33.30;39.70
40816;DHT22;26535;48.788;9.214;2023-10-13T15:21:35;33.90;39.50
40816;DHT22;26535;48.788;9.214;2023-10-13T15:24:02;34.00;38.50
40816;DHT22;26535;48.788;9.214;2023-10-13T15:26:40;34.10;38.80
40816;DHT22;26535;48.788;9.214;2023-10-13T15:29:10;34.50;38.60
40816;DHT22;26535;48.788;9.214;2023-10-13T15:31:38;35.10;39.40
40816;DHT22;26535;48.788;9.214;2023-10-13T15:34:12;35.30;38.10
40816;DHT22;26535;48.788;9.214;2023-10-13T15:36:45;35.20;38.00
40816;DHT22;26535;48.788;9.214;2023-10-13T15:39:11;35.40;38.20
40816;DHT22;26535;48.788;9.214;2023-10-13T15:41:37;35.10;37.70
40816;DHT22;26535;48.788;9.214;2023-10-13T15:44:04;35.00;37.90
40816;DHT22;26535;48.788;9.214;2023-10-13T15:46:36;34.80;38.10
40816;DHT22;26535;48.788;9.214;2023-10-13T15:49:08;34.20;38.70
40816;DHT22;26535;48.788;9.214;2023-10-13T15:51:34;33.00;39.00
40816;DHT22;26535;48.788;9.214;2023-10-13T15:54:02;32.40;39.60
40816;DHT22;26535;48.788;9.214;2023-10-13T15:56:53;32.80;39.40
40816;DHT22;26535;48.788;9.214;2023-10-13T15:59:18;32.90;39.50
40816;DHT22;26535;48.788;9.214;2023-10-13T16:01:44;33.30;39.20
40816;DHT22;26535;48.788;9.214;2023-10-13T16:04:13;32.70;39.20
40816;DHT22;26535;48.788;9.214;2023-10-13T16:06:45;32.40;39.60
40816;DHT22;26535;48.788;9.214;2023-10-13T16:09:16;31.90;39.70
40816;DHT22;26535;48.788;9.214;2023-10-13T16:11:49;31.20;40.20
40816;DHT22;26535;48.788;9.214;2023-10-13T16:14:15;30.50;40.80
40816;DHT22;26535;48.788;9.214;2023-10-13T16:16:47;29.80;41.30
40816;DHT22;26535;48.788;9.214;2023-10-13T16:21:40;29.00;42.10
40816;DHT22;26535;48.788;9.214;2023-10-13T16:24:06;28.90;42.70
40816;DHT22;26535;48.788;9.214;2023-10-13T16:26:39;28.60;42.60
40816;DHT22;26535;48.788;9.214;2023-10-13T16:29:07;28.30;43.00
40816;DHT22;26535;48.788;9.214;2023-10-13T16:31:32;28.10;43.00
40816;DHT22;26535;48.788;9.214;2023-10-13T16:33:58;28.00;43.40
40816;DHT22;26535;48.788;9.214;2023-10-13T16:36:25;27.80;43.90
40816;DHT22;26535;48.788;9.214;2023-10-13T16:38:51;27.60;44.10
40816;DHT22;26535;48.788;9.214;2023-10-13T16:41:17;27.40;43.90
40816;DHT22;26535;48.788;9.214;2023-10-13T16:43:44;27.30;44.10
40816;DHT22;26535;48.788;9.214;2023-10-13T16:46:12;27.10;44.50
40816;DHT22;26535;48.788;9.214;2023-10-13T16:48:38;26.90;45.00
40816;DHT22;26535;48.788;9.214;2023-10-13T16:51:04;26.80;45.30
40816;DHT22;26535;48.788;9.214;2023-10-13T16:53:31;26.50;45.40
40816;DHT22;26535;48.788;9.214;2023-10-13T16:56:00;26.40;45.90
40816;DHT22;26535;48.788;9.214;2023-10-13T16:58:28;26.20;46.60
40816;DHT22;26535;48.788;9.214;2023-10-13T17:00:56;26.10;47.00
40816;DHT22;26535;48.788;9.214;2023-10-13T17:03:22;25.90;47.00
40816;DHT22;26535;48.788;9.214;2023-10-13T17:05:57;25.80;46.90
40816;DHT22;26535;48.788;9.214;2023-10-13T17:08:27;25.70;46.70
40816;DHT22;26535;48.788;9.214;2023-10-13T17:11:15;25.60;47.80
40816;DHT22;26535;48.788;9.214;2023-10-13T17:13:43;25.50;47.90
40816;DHT22;26535;48.788;9.214;2023-10-13T17:16:19;25.30;48.60
40816;DHT22;26535;48.788;9.214;2023-10-13T17:18:47;25.10;48.60
40816;DHT22;26535;48.788;9.214;2023-10-13T17:21:21;24.90;49.80
40816;DHT22;26535;48.788;9.214;2023-10-13T17:23:49;24.70;48.70
40816;DHT22;26535;48.788;9.214;2023-10-13T17:26:19;24.70;49.10
40816;DHT22;26535;48.788;9.214;2023-10-13T17:28:45;24.60;49.70
40816;DHT22;26535;48.788;9.214;2023-10-13T17:33:38;24.50;49.80
40816;DHT22;26535;48.788;9.214;2023-10-13T17:36:09;24.40;50.10
40816;DHT22;26535;48.788;9.214;2023-10-13T17:38:36;24.40;50.40
40816;DHT22;26535;48.788;9.214;2023-10-13T17:43:34;24.30;50.50
40816;DHT22;26535;48.788;9.214;2023-10-13T17:46:11;24.30;50.70
40816;DHT22;26535;48.788;9.214;2023-10-13T17:48:38;24.30;50.70
40816;DHT22;26535;48.788;9.214;2023-10-13T17:51:08;24.30;51.20
40816;DHT22;26535;48.788;9.214;2023-10-13T17:53:37;24.30;51.90
40816;DHT22;26535;48.788;9.214;2023-10-13T17:56:10;24.20;52.20
40816;DHT22;26535;48.788;9.214;2023-10-13T17:58:38;24.20;52.50
40816;DHT22;26535;48.788;9.214;2023-10-13T18:01:13;24.10;52.70
40816;DHT22;26535;48.788;9.214;2023-10-13T18:03:53;24.00;52.60
40816;DHT22;26535;48.788;9.214;2023-10-13T18:06:20;24.00;52.80
40816;DHT22;26535;48.788;9.214;2023-10-13T18:08:48;23.90;52.40
40816;DHT22;26535;48.788;9.214;2023-10-13T18:11:18;23.90;52.90
40816;DHT22;26535;48.788;9.214;2023-10-13T18:13:45;23.80;53.10
40816;DHT22;26535;48.788;9.214;2023-10-13T18:16:15;23.60;53.60
40816;DHT22;26535;48.788;9.214;2023-10-13T18:18:42;23.60;54.00
40816;DHT22;26535;48.788;9.214;2023-10-13T18:21:08;23.50;54.20
40816;DHT22;26535;48.788;9.214;2023-10-13T18:23:38;23.50;54.80
40816;DHT22;26535;48.788;9.214;2023-10-13T18:26:11;23.40;55.40
40816;DHT22;26535;48.788;9.214;2023-10-13T18:28:38;23.30;55.80
40816;DHT22;26535;48.788;9.214;2023-10-13T18:31:05;23.30;56.20
40816;DHT22;26535;48.788;9.214;2023-10-13T18:33:36;23.20;56.10
40816;DHT22;26535;48.788;9.214;2023-10-13T18:36:23;23.20;56.40
40816;DHT22;26535;48.788;9.214;2023-10-13T18:38:50;23.10;56.80
40816;DHT22;26535;48.788;9.214;2023-10-13T18:41:17;23.00;56.40
40816;DHT22;26535;48.788;9.214;2023-10-13T18:43:45;22.90;56.60
40816;DHT22;26535;48.788;9.214;2023-10-13T18:46:12;22.70;57.20
40816;DHT22;26535;48.788;9.214;2023-10-13T18:48:41;22.50;57.70
40816;DHT22;26535;48.788;9.214;2023-10-13T18:51:17;22.20;57.90
40816;DHT22;26535;48.788;9.214;2023-10-13T18:53:45;22.20;58.30
40816;DHT22;26535;48.788;9.214;2023-10-13T18:56:17;22.20;59.10
40816;DHT22;26535;48.788;9.214;2023-10-13T18:58:48;22.10;59.10
40816;DHT22;26535;48.788;9.214;2023-10-13T19:01:21;22.10;59.60
40816;DHT22;26535;48.788;9.214;2023-10-13T19:03:53;22.10;59.40
40816;DHT22;26535;48.788;9.214;2023-10-13T19:06:20;22.10;59.60
40816;DHT22;26535;48.788;9.214;2023-10-13T19:08:46;22.20;59.30
40816;DHT22;26535;48.788;9.214;2023-10-13T19:11:12;22.30;58.90
40816;DHT22;26535;48.788;9.214;2023-10-13T19:13:42;22.40;59.10
40816;DHT22;26535;48.788;9.214;2023-10-13T19:16:12;22.40;58.10
40816;DHT22;26535;48.788;9.214;2023-10-13T19:18:38;22.60;58.40
40816;DHT22;26535;48.788;9.214;2023-10-13T19:21:05;22.80;58.30
40816;DHT22;26535;48.788;9.214;2023-10-13T19:23:32;22.80;58.50
40816;DHT22;26535;48.788;9.214;2023-10-13T19:25:58;22.90;57.60
40816;DHT22;26535;48.788;9.214;2023-10-13T19:28:24;23.00;57.10
40816;DHT22;26535;48.788;9.214;2023-10-13T19:30:50;23.00;56.30
40816;DHT22;26535;48.788;9.214;2023-10-13T19:33:19;23.20;55.50
40816;DHT22;26535;48.788;9.214;2023-10-13T19:35:48;23.30;55.10
40816;DHT22;26535;48.788;9.214;2023-10-13T19:38:17;23.50;55.00
40816;DHT22;26535;48.788;9.214;2023-10-13T19:40:43;23.30;55.40
40816;DHT22;26535;48.788;9.214;2023-10-13T19:43:09;23.30;55.30
40816;DHT22;26535;48.788;9.214;2023-10-13T19:45:38;23.20;54.90
40816;DHT22;26535;48.788;9.214;2023-10-13T19:48:07;23.20;54.50
40816;DHT22;26535;48.788;9.214;2023-10-13T19:50:38;23.10;54.60
40816;DHT22;26535;48.788;9.214;2023-10-13T19:53:08;23.10;55.10
40816;DHT22;26535;48.788;9.214;2023-10-13T19:55:42;23.00;55.30
40816;DHT22;26535;48.788;9.214;2023-10-13T19:58:11;22.90;54.70
40816;DHT22;26535;48.788;9.214;2023-10-13T20:00:40;23.00;54.90
40816;DHT22;26535;48.788;9.214;2023-10-13T20:03:06;23.00;54.60
40816;DHT22;26535;48.788;9.214;2023-10-13T20:05:37;23.00;54.80
40816;DHT22;26535;48.788;9.214;2023-10-13T20:08:03;23.00;54.60
40816;DHT22;26535;48.788;9.214;2023-10-13T20:10:33;22.90;53.60
40816;DHT22;26535;48.788;9.214;2023-10-13T20:13:07;22.90;53.80
40816;DHT22;26535;48.788;9.214;2023-10-13T20:15:36;23.00;53.50
40816;DHT22;26535;48.788;9.214;2023-10-13T20:18:02;23.00;53.10
40816;DHT22;26535;48.788;9.214;2023-10-13T20:20:37;23.10;52.80
40816;DHT22;26535;48.788;9.214;2023-10-13T20:23:10;23.10;52.50
40816;DHT22;26535;48.788;9.214;2023-10-13T20:25:42;23.10;52.60
40816;DHT22;26535;48.788;9.214;2023-10-13T20:28:08;23.10;52.50
40816;DHT22;26535;48.788;9.214;2023-10-13T20:30:35;23.00;52.60
40816;DHT22;26535;48.788;9.214;2023-10-13T20:33:02;23.10;52.70
40816;DHT22;26535;48.788;9.214;2023-10-13T20:35:47;23.00;52.60
40816;DHT22;26535;48.788;9.214;2023-10-13T20:38:13;23.00;52.60
40816;DHT22;26535;48.788;9.214;2023-10-13T20:40:39;22.90;52.70
40816;DHT22;26535;48.788;9.214;2023-10-13T20:43:05;22.90;52.60
40816;DHT22;26535;48.788;9.214;2023-10-13T20:45:35;22.80;52.40
40816;DHT22;26535;48.788;9.214;2023-10-13T20:48:01;22.80;52.30
40816;DHT22;26535;48.788;9.214;2023-10-13T20:50:26;22.70;52.40
40816;DHT22;26535;48.788;9.214;2023-10-13T20:52:52;22.70;52.60
40816;DHT22;26535;48.788;9.214;2023-10-13T20:55:21;22.70;52.30
40816;DHT22;26535;48.788;9.214;2023-10-13T20:57:47;22.60;52.30
40816;DHT22;26535;48.788;9.214;2023-10-13T21:00:19;22.50;52.40
40816;DHT22;26535;48.788;9.214;2023-10-13T21:02:52;22.50;52.30
40816;DHT22;26535;48.788;9.214;2023-10-13T21:05:22;22.50;52.00
40816;DHT22;26535;48.788;9.214;2023-10-13T21:07:53;22.50;51.60